• Join FlightAware (Why Join?)
  • Login
  • US Flag 
08:43PM EST


 

Airport Tracker/Info


-or-


 

Live Flight TrackerFlight Track Log ✈ CTL18 ✈ 08-May-2013 ✈ KBKL - KPTK

Flight Track Log - Related Links

Times and Time Zones

All times are in EDT time to prevent confusion due to time zone crossing. See the CTL18 flight status page for this flight to view local times or setup timezone preferences in your user account.

Time Position Orientation Groundspeed Altitude Reporting Facility
EDT Latitude Longitude Course Direction KTS MPH feet Rate Location/Type
10:33PM 41.7828 -82.4125 312° West 174 200 6,000  Level Cleveland Center
10:34PM 41.8006 -82.4744 291° West 170 196 6,100  Climbing Cleveland Center
10:35PM 41.8064 -82.4997 287° West 171 197 6,000 -120 Descending Cleveland Center
10:35PM 41.8142 -82.5250 292° West 171 197 6,000  Level Cleveland Center
10:36PM 41.8319 -82.5842 292° West 171 197 6,000  Level Cleveland Center
10:37PM 41.8561 -82.6406 300° West 173 199 6,000  Level Cleveland Center
10:38PM 41.8928 -82.6808 321° Northwest 163 188 6,000  Level Cleveland Center
10:39PM 42.1480 -82.6246 312° West  Level Estimated
10:39PM 41.9317 -82.7156 326° Northwest 167 192 6,000  Level Cleveland Center
10:40PM 41.9667 -82.7503 324° Northwest 167 192 6,000  Level Cleveland Center
10:41PM 42.0075 -82.7853 328° Northwest 165 190 6,000  Level Cleveland Center
10:42PM 42.0444 -82.8200 325° Northwest 166 191 6,000  Level Cleveland Center
10:43PM 42.0833 -82.8578 324° Northwest 164 189 6,000 -60 Level Cleveland Center
10:44PM 42.1244 -82.8900 330° Northwest 164 189 5,900  Descending Cleveland Center
10:45PM 42.1592 -82.9250 323° Northwest 163 188 6,000  Climbing Cleveland Center
10:46PM 42.2000 -82.9600 328° Northwest 163 188 6,000  Level Cleveland Center
10:47PM 42.2347 -82.9950 323° Northwest 163 188 6,000  Level Cleveland Center
10:48PM 42.2717 -83.0300 325° Northwest 161 185 6,000  Level Cleveland Center
10:49PM 42.3144 -83.0656 328° Northwest 162 186 6,000 -60 Level Cleveland Center
10:50PM 42.3494 -83.0978 326° Northwest 160 184 5,900  Descending Cleveland Center
10:51PM 42.3861 -83.1358 323° Northwest 159 183 6,000 -360 Climbing Cleveland Center
10:52PM 42.4247 -83.1739 324° Northwest 185 213 5,200 -900 Descending Cleveland Center
10:53PM 42.4675 -83.2178 323° Northwest 192 221 4,200 -840 Descending Cleveland Center
10:54PM 42.5083 -83.2589 323° Northwest 191 220 3,600 -660 Descending Cleveland Center
10:55PM 42.5489 -83.3031 321° Northwest 182 209 2,900 -600 Descending Cleveland Center
10:56PM 42.5811 -83.3581 309° West 176 203 2,400 -480 Descending Cleveland Center
10:57PM 42.6111 -83.4044 311° West 168 193 2,000 -300 Descending Cleveland Center
10:58PM 42.6308 -83.4506 300° West 130 150 1,900 -120 Descending Cleveland Center
11:00PM 42.6500 -83.4167 304° West  Level FlightAware Approximate
11:07PM 42.6656 -83.4205 304° West  Level Estimated
11:08PM 42.6656 -83.4205 304° West  Level Estimated
11:09PM 42.6656 -83.4205 304° West  Level Estimated